sensor_id;sensor_type;location;lat;lon;timestamp;pressure;altitude;pressure_sealevel;temperature;humidity
12801;BME280;6464;42.494;27.470;2023-05-24T04:03:11;97803.94;;;14.93;100.00
12801;BME280;6464;42.494;27.470;2023-05-24T04:05:39;97778.94;;;15.28;100.00
12801;BME280;6464;42.494;27.470;2023-05-24T04:08:09;97669.84;;;15.31;100.00
12801;BME280;6464;42.494;27.470;2023-05-24T04:10:37;97863.25;;;16.29;100.00
12801;BME280;6464;42.494;27.470;2023-05-24T04:13:08;97764.31;;;15.33;100.00
12801;BME280;6464;42.494;27.470;2023-05-24T04:15:36;97889.31;;;16.04;100.00
12801;BME280;6464;42.494;27.470;2023-05-24T04:18:06;97922.88;;;15.96;100.00
12801;BME280;6464;42.494;27.470;2023-05-24T04:20:40;97945.06;;;15.74;100.00
12801;BME280;6464;42.494;27.470;2023-05-24T04:23:13;98034.69;;;15.72;100.00
12801;BME280;6464;42.494;27.470;2023-05-24T04:25:42;98036.41;;;15.50;100.00
12801;BME280;6464;42.494;27.470;2023-05-24T04:28:12;98030.22;;;15.06;100.00
12801;BME280;6464;42.494;27.470;2023-05-24T04:30:41;98178.25;;;16.36;100.00
12801;BME280;6464;42.494;27.470;2023-05-24T04:33:11;98185.56;;;16.11;100.00
12801;BME280;6464;42.494;27.470;2023-05-24T04:35:41;98170.56;;;15.67;100.00
12801;BME280;6464;42.494;27.470;2023-05-24T04:38:12;98157.00;;;15.36;100.00
12801;BME280;6464;42.494;27.470;2023-05-24T04:40:40;98201.66;;;15.99;100.00
12801;BME280;6464;42.494;27.470;2023-05-24T04:43:11;98116.69;;;15.65;100.00
12801;BME280;6464;42.494;27.470;2023-05-24T04:45:41;98191.63;;;16.02;100.00
12801;BME280;6464;42.494;27.470;2023-05-24T04:48:17;98283.97;;;16.55;100.00
12801;BME280;6464;42.494;27.470;2023-05-24T04:53:55;98372.41;;;16.36;100.00
12801;BME280;6464;42.494;27.470;2023-05-24T04:56:28;98410.69;;;16.67;100.00
12801;BME280;6464;42.494;27.470;2023-05-24T04:59:19;98395.22;;;16.38;100.00
12801;BME280;6464;42.494;27.470;2023-05-24T05:05:41;98477.81;;;16.37;100.00
12801;BME280;6464;42.494;27.470;2023-05-24T05:08:19;98565.31;;;16.29;100.00
12801;BME280;6464;42.494;27.470;2023-05-24T05:10:52;98616.50;;;16.43;100.00
12801;BME280;6464;42.494;27.470;2023-05-24T05:13:40;98660.16;;;15.93;100.00
12801;BME280;6464;42.494;27.470;2023-05-24T05:16:16;98662.00;;;15.80;100.00
12801;BME280;6464;42.494;27.470;2023-05-24T05:19:00;98570.63;;;16.29;100.00
12801;BME280;6464;42.494;27.470;2023-05-24T05:21:35;98487.50;;;16.49;100.00
12801;BME280;6464;42.494;27.470;2023-05-24T05:27:13;98741.75;;;17.68;100.00
12801;BME280;6464;42.494;27.470;2023-05-24T05:30:05;98663.84;;;16.62;100.00
12801;BME280;6464;42.494;27.470;2023-05-24T05:32:37;98815.03;;;17.05;100.00
12801;BME280;6464;42.494;27.470;2023-05-24T05:35:28;98850.06;;;17.58;100.00
12801;BME280;6464;42.494;27.470;2023-05-24T05:38:04;98934.66;;;17.67;100.00
12801;BME280;6464;42.494;27.470;2023-05-24T05:40:46;98801.50;;;16.60;100.00
12801;BME280;6464;42.494;27.470;2023-05-24T05:43:31;98755.63;;;16.33;100.00
12801;BME280;6464;42.494;27.470;2023-05-24T05:46:02;98916.69;;;17.69;100.00
12801;BME280;6464;42.494;27.470;2023-05-24T05:48:42;98866.59;;;17.39;100.00
12801;BME280;6464;42.494;27.470;2023-05-24T05:51:13;98939.22;;;17.89;100.00
12801;BME280;6464;42.494;27.470;2023-05-24T05:53:41;98862.31;;;17.26;100.00
12801;BME280;6464;42.494;27.470;2023-05-24T05:56:09;98797.03;;;16.85;100.00
12801;BME280;6464;42.494;27.470;2023-05-24T05:58:41;98933.44;;;17.60;100.00
12801;BME280;6464;42.494;27.470;2023-05-24T06:01:09;98930.63;;;17.27;100.00
12801;BME280;6464;42.494;27.470;2023-05-24T06:03:39;98954.25;;;17.55;100.00
12801;BME280;6464;42.494;27.470;2023-05-24T06:06:09;99004.88;;;17.55;100.00
12801;BME280;6464;42.494;27.470;2023-05-24T06:08:40;98783.00;;;16.59;100.00
12801;BME280;6464;42.494;27.470;2023-05-24T06:11:23;98892.75;;;17.10;100.00
12801;BME280;6464;42.494;27.470;2023-05-24T06:16:53;98834.44;;;16.70;100.00
12801;BME280;6464;42.494;27.470;2023-05-24T06:19:22;99093.91;;;17.89;100.00
12801;BME280;6464;42.494;27.470;2023-05-24T06:22:01;99012.72;;;17.45;100.00
12801;BME280;6464;42.494;27.470;2023-05-24T06:24:49;99093.94;;;17.77;100.00
12801;BME280;6464;42.494;27.470;2023-05-24T06:32:52;99047.75;;;17.15;100.00
12801;BME280;6464;42.494;27.470;2023-05-24T06:35:33;98993.13;;;17.58;100.00
12801;BME280;6464;42.494;27.470;2023-05-24T06:38:04;99098.66;;;17.97;100.00
12801;BME280;6464;42.494;27.470;2023-05-24T06:40:46;98914.19;;;16.85;100.00
12801;BME280;6464;42.494;27.470;2023-05-24T06:48:47;99018.84;;;18.52;100.00
12801;BME280;6464;42.494;27.470;2023-05-24T06:51:15;99009.44;;;18.12;100.00
12801;BME280;6464;42.494;27.470;2023-05-24T06:53:43;99099.31;;;18.47;100.00
12801;BME280;6464;42.494;27.470;2023-05-24T06:56:24;99045.38;;;18.19;100.00
12801;BME280;6464;42.494;27.470;2023-05-24T06:58:51;99022.56;;;17.56;100.00
12801;BME280;6464;42.494;27.470;2023-05-24T07:01:19;99057.38;;;17.42;100.00
12801;BME280;6464;42.494;27.470;2023-05-24T07:04:05;99115.84;;;17.56;100.00
12801;BME280;6464;42.494;27.470;2023-05-24T07:06:35;99014.16;;;17.26;100.00
12801;BME280;6464;42.494;27.470;2023-05-24T07:11:41;98951.44;;;17.21;100.00
12801;BME280;6464;42.494;27.470;2023-05-24T07:14:14;98990.94;;;17.28;100.00
12801;BME280;6464;42.494;27.470;2023-05-24T07:17:04;98974.13;;;17.14;100.00
12801;BME280;6464;42.494;27.470;2023-05-24T07:28:27;99197.31;;;18.45;100.00
12801;BME280;6464;42.494;27.470;2023-05-24T07:31:09;99361.56;;;18.98;100.00
12801;BME280;6464;42.494;27.470;2023-05-24T07:33:55;99323.53;;;18.95;100.00
12801;BME280;6464;42.494;27.470;2023-05-24T07:36:25;99384.69;;;19.35;100.00
12801;BME280;6464;42.494;27.470;2023-05-24T07:39:08;99270.34;;;17.70;100.00
12801;BME280;6464;42.494;27.470;2023-05-24T07:41:45;99258.66;;;18.10;100.00
12801;BME280;6464;42.494;27.470;2023-05-24T07:57:42;99227.97;;;19.67;100.00
12801;BME280;6464;42.494;27.470;2023-05-24T08:00:09;99296.38;;;20.15;100.00
12801;BME280;6464;42.494;27.470;2023-05-24T08:02:39;99306.34;;;20.24;100.00
12801;BME280;6464;42.494;27.470;2023-05-24T08:05:07;99316.66;;;20.40;100.00
12801;BME280;6464;42.494;27.470;2023-05-24T08:07:35;99347.84;;;20.41;100.00
12801;BME280;6464;42.494;27.470;2023-05-24T08:10:02;99348.66;;;20.64;100.00
12801;BME280;6464;42.494;27.470;2023-05-24T08:12:29;99375.34;;;20.65;100.00
12801;BME280;6464;42.494;27.470;2023-05-24T08:14:57;99389.50;;;20.88;100.00
12801;BME280;6464;42.494;27.470;2023-05-24T08:17:25;99392.16;;;20.99;100.00
12801;BME280;6464;42.494;27.470;2023-05-24T08:19:52;99434.63;;;21.15;100.00
12801;BME280;6464;42.494;27.470;2023-05-24T08:22:19;99484.63;;;20.83;100.00
12801;BME280;6464;42.494;27.470;2023-05-24T08:24:46;99492.84;;;20.70;100.00
12801;BME280;6464;42.494;27.470;2023-05-24T08:27:13;99481.38;;;20.68;100.00
12801;BME280;6464;42.494;27.470;2023-05-24T08:29:40;99564.63;;;20.53;100.00
12801;BME280;6464;42.494;27.470;2023-05-24T08:32:08;99668.41;;;20.63;100.00
12801;BME280;6464;42.494;27.470;2023-05-24T08:34:35;99664.44;;;20.79;100.00
12801;BME280;6464;42.494;27.470;2023-05-24T08:37:03;99674.44;;;21.00;100.00
12801;BME280;6464;42.494;27.470;2023-05-24T08:39:30;99654.78;;;20.88;100.00
12801;BME280;6464;42.494;27.470;2023-05-24T08:41:57;99705.72;;;20.88;100.00
12801;BME280;6464;42.494;27.470;2023-05-24T08:44:25;99740.03;;;21.18;100.00
12801;BME280;6464;42.494;27.470;2023-05-24T08:46:57;99780.75;;;20.88;100.00
12801;BME280;6464;42.494;27.470;2023-05-24T08:49:26;99800.31;;;21.13;100.00
12801;BME280;6464;42.494;27.470;2023-05-24T08:51:53;99825.94;;;21.97;100.00
12801;BME280;6464;42.494;27.470;2023-05-24T08:54:21;99928.81;;;21.97;100.00
12801;BME280;6464;42.494;27.470;2023-05-24T08:56:48;99971.03;;;21.95;100.00
12801;BME280;6464;42.494;27.470;2023-05-24T08:59:17;99979.41;;;21.44;100.00
12801;BME280;6464;42.494;27.470;2023-05-24T09:01:47;99926.47;;;21.81;100.00
12801;BME280;6464;42.494;27.470;2023-05-24T09:04:18;99928.91;;;21.85;100.00
12801;BME280;6464;42.494;27.470;2023-05-24T09:06:48;99945.75;;;21.87;100.00
12801;BME280;6464;42.494;27.470;2023-05-24T09:09:17;99923.56;;;21.96;100.00
12801;BME280;6464;42.494;27.470;2023-05-24T09:11:46;99987.81;;;22.32;100.00
12801;BME280;6464;42.494;27.470;2023-05-24T09:14:15;99955.66;;;22.08;100.00
12801;BME280;6464;42.494;27.470;2023-05-24T09:16:42;100033.63;;;22.42;100.00
12801;BME280;6464;42.494;27.470;2023-05-24T09:19:10;100116.28;;;23.07;100.00
12801;BME280;6464;42.494;27.470;2023-05-24T09:21:38;100251.63;;;23.53;100.00
12801;BME280;6464;42.494;27.470;2023-05-24T09:24:10;100402.22;;;23.54;100.00
12801;BME280;6464;42.494;27.470;2023-05-24T09:26:37;100560.63;;;23.96;100.00
12801;BME280;6464;42.494;27.470;2023-05-24T09:29:06;100754.28;;;24.35;100.00
12801;BME280;6464;42.494;27.470;2023-05-24T09:31:33;100664.97;;;23.70;100.00
12801;BME280;6464;42.494;27.470;2023-05-24T09:34:00;100575.03;;;25.42;100.00
12801;BME280;6464;42.494;27.470;2023-05-24T09:36:27;100900.03;;;27.50;100.00
12801;BME280;6464;42.494;27.470;2023-05-24T09:39:05;100700.72;;;26.01;100.00
12801;BME280;6464;42.494;27.470;2023-05-24T09:41:35;100394.44;;;25.39;100.00
12801;BME280;6464;42.494;27.470;2023-05-24T09:44:03;100186.53;;;25.29;100.00
12801;BME280;6464;42.494;27.470;2023-05-24T09:46:34;100350.06;;;25.62;100.00
12801;BME280;6464;42.494;27.470;2023-05-24T09:49:02;100364.84;;;25.17;100.00
12801;BME280;6464;42.494;27.470;2023-05-24T09:51:35;100412.28;;;25.93;100.00
12801;BME280;6464;42.494;27.470;2023-05-24T09:54:02;100659.09;;;27.08;100.00
12801;BME280;6464;42.494;27.470;2023-05-24T09:56:32;101212.38;;;29.61;100.00
12801;BME280;6464;42.494;27.470;2023-05-24T09:59:05;101460.34;;;28.68;100.00
12801;BME280;6464;42.494;27.470;2023-05-24T10:01:33;101442.03;;;27.82;100.00
12801;BME280;6464;42.494;27.470;2023-05-24T10:04:00;101283.09;;;27.25;100.00
12801;BME280;6464;42.494;27.470;2023-05-24T10:06:32;101460.44;;;29.10;100.00
12801;BME280;6464;42.494;27.470;2023-05-24T10:09:02;101431.78;;;29.38;100.00
12801;BME280;6464;42.494;27.470;2023-05-24T10:11:31;101500.03;;;30.78;100.00
12801;BME280;6464;42.494;27.470;2023-05-24T10:13:58;101412.69;;;30.01;100.00
12801;BME280;6464;42.494;27.470;2023-05-24T10:16:27;101434.91;;;29.33;100.00
12801;BME280;6464;42.494;27.470;2023-05-24T10:18:53;101469.50;;;29.73;100.00
12801;BME280;6464;42.494;27.470;2023-05-24T10:21:22;101568.81;;;31.30;100.00
12801;BME280;6464;42.494;27.470;2023-05-24T10:23:51;101632.16;;;32.86;100.00
12801;BME280;6464;42.494;27.470;2023-05-24T10:26:24;101673.34;;;33.75;100.00
12801;BME280;6464;42.494;27.470;2023-05-24T10:28:56;101641.84;;;33.08;100.00
12801;BME280;6464;42.494;27.470;2023-05-24T10:31:29;101657.75;;;32.94;100.00
12801;BME280;6464;42.494;27.470;2023-05-24T10:33:58;101653.97;;;31.82;100.00
12801;BME280;6464;42.494;27.470;2023-05-24T10:36:26;101724.28;;;33.31;100.00
12801;BME280;6464;42.494;27.470;2023-05-24T10:38:53;101737.22;;;33.84;100.00
12801;BME280;6464;42.494;27.470;2023-05-24T10:41:20;101695.28;;;33.20;100.00
12801;BME280;6464;42.494;27.470;2023-05-24T10:43:47;101738.19;;;34.72;100.00
12801;BME280;6464;42.494;27.470;2023-05-24T10:46:15;101760.22;;;35.57;100.00
12801;BME280;6464;42.494;27.470;2023-05-24T10:48:43;101775.63;;;36.41;100.00
12801;BME280;6464;42.494;27.470;2023-05-24T10:51:34;101794.34;;;36.86;100.00
12801;BME280;6464;42.494;27.470;2023-05-24T10:54:13;101775.47;;;36.67;100.00
12801;BME280;6464;42.494;27.470;2023-05-24T10:56:41;101716.84;;;35.18;100.00
12801;BME280;6464;42.494;27.470;2023-05-24T10:59:21;101747.31;;;36.57;100.00
12801;BME280;6464;42.494;27.470;2023-05-24T11:01:54;101733.59;;;36.32;100.00
12801;BME280;6464;42.494;27.470;2023-05-24T11:04:23;101764.47;;;36.10;100.00
12801;BME280;6464;42.494;27.470;2023-05-24T11:06:54;101758.13;;;36.66;100.00
12801;BME280;6464;42.494;27.470;2023-05-24T11:09:22;101784.44;;;37.72;100.00
12801;BME280;6464;42.494;27.470;2023-05-24T11:11:54;101768.53;;;37.51;100.00
12801;BME280;6464;42.494;27.470;2023-05-24T11:14:23;101779.28;;;38.23;100.00
12801;BME280;6464;42.494;27.470;2023-05-24T11:16:50;101768.78;;;37.33;100.00
12801;BME280;6464;42.494;27.470;2023-05-24T11:19:18;101677.47;;;34.59;100.00
12801;BME280;6464;42.494;27.470;2023-05-24T11:21:48;101586.09;;;32.26;100.00
12801;BME280;6464;42.494;27.470;2023-05-24T11:24:16;101529.94;;;31.28;100.00
12801;BME280;6464;42.494;27.470;2023-05-24T11:26:43;101439.19;;;30.49;100.00
12801;BME280;6464;42.494;27.470;2023-05-24T11:29:12;101448.16;;;30.99;100.00
12801;BME280;6464;42.494;27.470;2023-05-24T11:31:46;101469.78;;;30.31;100.00
12801;BME280;6464;42.494;27.470;2023-05-24T11:34:13;101432.50;;;30.12;100.00
12801;BME280;6464;42.494;27.470;2023-05-24T11:36:41;101477.63;;;30.65;100.00
12801;BME280;6464;42.494;27.470;2023-05-24T11:39:09;101375.63;;;29.48;100.00
12801;BME280;6464;42.494;27.470;2023-05-24T11:41:38;101442.31;;;29.73;100.00
12801;BME280;6464;42.494;27.470;2023-05-24T11:44:06;101417.84;;;30.04;100.00
12801;BME280;6464;42.494;27.470;2023-05-24T11:46:34;101397.59;;;29.87;100.00
12801;BME280;6464;42.494;27.470;2023-05-24T11:49:04;101487.03;;;31.40;100.00
12801;BME280;6464;42.494;27.470;2023-05-24T11:51:33;101551.56;;;32.72;100.00
12801;BME280;6464;42.494;27.470;2023-05-24T11:54:00;101571.19;;;33.31;100.00
12801;BME280;6464;42.494;27.470;2023-05-24T11:56:31;101667.94;;;34.71;100.00
12801;BME280;6464;42.494;27.470;2023-05-24T11:59:13;101660.50;;;34.55;100.00
12801;BME280;6464;42.494;27.470;2023-05-24T12:01:42;101682.44;;;36.15;100.00
12801;BME280;6464;42.494;27.470;2023-05-24T12:04:09;101696.84;;;36.41;100.00
12801;BME280;6464;42.494;27.470;2023-05-24T12:06:38;101657.00;;;35.05;100.00
12801;BME280;6464;42.494;27.470;2023-05-24T12:09:05;101558.47;;;32.39;100.00
12801;BME280;6464;42.494;27.470;2023-05-24T12:11:40;101446.97;;;30.63;100.00
12801;BME280;6464;42.494;27.470;2023-05-24T12:14:11;101455.34;;;31.10;100.00
12801;BME280;6464;42.494;27.470;2023-05-24T12:16:38;101460.38;;;30.95;100.00
12801;BME280;6464;42.494;27.470;2023-05-24T12:19:07;101412.56;;;30.42;100.00
12801;BME280;6464;42.494;27.470;2023-05-24T12:21:40;101388.97;;;29.82;100.00
12801;BME280;6464;42.494;27.470;2023-05-24T12:24:08;101471.97;;;31.16;100.00
12801;BME280;6464;42.494;27.470;2023-05-24T12:26:36;101492.06;;;31.44;100.00
12801;BME280;6464;42.494;27.470;2023-05-24T12:29:04;101463.22;;;31.03;100.00
12801;BME280;6464;42.494;27.470;2023-05-24T12:31:31;101412.22;;;30.26;100.00
12801;BME280;6464;42.494;27.470;2023-05-24T12:33:58;101496.34;;;31.37;100.00
12801;BME280;6464;42.494;27.470;2023-05-24T12:36:27;101410.94;;;30.30;100.00
12801;BME280;6464;42.494;27.470;2023-05-24T12:38:56;101358.38;;;29.80;100.00
12801;BME280;6464;42.494;27.470;2023-05-24T12:41:23;101282.75;;;29.03;100.00
12801;BME280;6464;42.494;27.470;2023-05-24T12:43:50;101264.03;;;29.09;100.00
12801;BME280;6464;42.494;27.470;2023-05-24T12:46:19;101341.25;;;29.99;100.00
12801;BME280;6464;42.494;27.470;2023-05-24T12:48:46;101279.84;;;28.94;100.00
12801;BME280;6464;42.494;27.470;2023-05-24T12:51:12;101330.72;;;30.15;100.00
12801;BME280;6464;42.494;27.470;2023-05-24T12:53:39;101487.88;;;32.16;100.00
12801;BME280;6464;42.494;27.470;2023-05-24T12:56:07;101542.84;;;33.49;100.00
12801;BME280;6464;42.494;27.470;2023-05-24T12:58:34;101619.91;;;35.35;100.00
12801;BME280;6464;42.494;27.470;2023-05-24T13:01:01;101659.66;;;36.70;100.00
12801;BME280;6464;42.494;27.470;2023-05-24T13:03:30;101700.00;;;37.64;100.00
12801;BME280;6464;42.494;27.470;2023-05-24T13:05:56;101686.28;;;37.25;100.00
12801;BME280;6464;42.494;27.470;2023-05-24T13:08:24;101695.59;;;37.24;100.00
12801;BME280;6464;42.494;27.470;2023-05-24T13:10:53;101659.78;;;36.04;100.00
12801;BME280;6464;42.494;27.470;2023-05-24T13:13:20;101637.31;;;35.10;100.00
12801;BME280;6464;42.494;27.470;2023-05-24T13:15:48;101647.06;;;36.20;100.00
12801;BME280;6464;42.494;27.470;2023-05-24T13:18:15;101644.53;;;36.74;100.00
12801;BME280;6464;42.494;27.470;2023-05-24T13:20:43;101671.47;;;36.87;100.00
12801;BME280;6464;42.494;27.470;2023-05-24T13:23:10;101672.03;;;36.90;100.00
12801;BME280;6464;42.494;27.470;2023-05-24T13:25:37;101655.16;;;36.93;100.00
12801;BME280;6464;42.494;27.470;2023-05-24T13:28:04;101668.47;;;37.67;100.00
12801;BME280;6464;42.494;27.470;2023-05-24T13:30:31;101671.56;;;37.49;100.00
12801;BME280;6464;42.494;27.470;2023-05-24T13:32:58;101646.84;;;37.33;100.00
12801;BME280;6464;42.494;27.470;2023-05-24T13:35:25;101631.22;;;36.54;100.00
12801;BME280;6464;42.494;27.470;2023-05-24T13:37:53;101646.78;;;37.18;100.00
12801;BME280;6464;42.494;27.470;2023-05-24T13:40:22;101609.47;;;36.28;100.00
12801;BME280;6464;42.494;27.470;2023-05-24T13:42:49;101574.44;;;35.24;100.00
12801;BME280;6464;42.494;27.470;2023-05-24T13:45:16;101561.66;;;34.83;100.00
12801;BME280;6464;42.494;27.470;2023-05-24T13:47:43;101595.94;;;36.11;100.00
12801;BME280;6464;42.494;27.470;2023-05-24T13:50:10;101542.03;;;35.03;100.00
12801;BME280;6464;42.494;27.470;2023-05-24T13:52:37;101555.34;;;34.22;100.00
12801;BME280;6464;42.494;27.470;2023-05-24T13:55:06;101534.88;;;34.00;100.00
12801;BME280;6464;42.494;27.470;2023-05-24T13:57:33;101485.28;;;33.51;100.00
12801;BME280;6464;42.494;27.470;2023-05-24T14:00:00;101522.22;;;34.33;100.00
12801;BME280;6464;42.494;27.470;2023-05-24T14:02:27;101558.19;;;35.31;100.00
12801;BME280;6464;42.494;27.470;2023-05-24T14:04:55;101490.34;;;32.92;100.00
12801;BME280;6464;42.494;27.470;2023-05-24T14:07:23;101459.91;;;33.23;100.00
12801;BME280;6464;42.494;27.470;2023-05-24T14:09:50;101492.28;;;33.80;100.00
12801;BME280;6464;42.494;27.470;2023-05-24T14:12:18;101392.81;;;30.79;100.00
12801;BME280;6464;42.494;27.470;2023-05-24T14:14:45;101178.28;;;28.55;100.00
12801;BME280;6464;42.494;27.470;2023-05-24T14:17:12;101284.91;;;30.49;100.00
12801;BME280;6464;42.494;27.470;2023-05-24T14:19:38;101409.19;;;32.12;100.00
12801;BME280;6464;42.494;27.470;2023-05-24T14:22:05;101384.63;;;31.84;100.00
12801;BME280;6464;42.494;27.470;2023-05-24T14:24:32;101403.25;;;32.44;100.00
12801;BME280;6464;42.494;27.470;2023-05-24T14:26:59;101427.16;;;32.78;100.00
12801;BME280;6464;42.494;27.470;2023-05-24T14:29:28;101395.88;;;31.99;100.00
12801;BME280;6464;42.494;27.470;2023-05-24T14:31:54;101394.13;;;32.35;100.00
12801;BME280;6464;42.494;27.470;2023-05-24T14:34:21;101389.69;;;32.88;100.00
12801;BME280;6464;42.494;27.470;2023-05-24T14:36:48;101422.88;;;32.75;100.00
12801;BME280;6464;42.494;27.470;2023-05-24T14:39:15;101387.22;;;31.66;100.00
12801;BME280;6464;42.494;27.470;2023-05-24T14:41:42;101293.66;;;30.72;100.00
12801;BME280;6464;42.494;27.470;2023-05-24T14:44:09;101273.38;;;29.87;100.00
12801;BME280;6464;42.494;27.470;2023-05-24T14:46:39;101202.13;;;29.43;100.00
12801;BME280;6464;42.494;27.470;2023-05-24T14:49:05;101164.88;;;29.25;100.00
12801;BME280;6464;42.494;27.470;2023-05-24T14:51:32;101134.41;;;28.81;100.00
12801;BME280;6464;42.494;27.470;2023-05-24T14:54:00;101011.25;;;28.11;100.00
12801;BME280;6464;42.494;27.470;2023-05-24T14:56:27;100645.06;;;27.03;100.00
12801;BME280;6464;42.494;27.470;2023-05-24T14:58:54;100398.50;;;26.36;100.00
12801;BME280;6464;42.494;27.470;2023-05-24T15:01:21;100308.50;;;26.15;100.00
12801;BME280;6464;42.494;27.470;2023-05-24T15:03:50;100192.56;;;25.52;100.00
12801;BME280;6464;42.494;27.470;2023-05-24T15:06:17;100122.91;;;25.36;100.00
12801;BME280;6464;42.494;27.470;2023-05-24T15:08:44;99908.97;;;24.15;100.00
12801;BME280;6464;42.494;27.470;2023-05-24T15:11:11;99795.56;;;24.18;100.00
12801;BME280;6464;42.494;27.470;2023-05-24T15:13:38;99731.28;;;23.94;100.00
12801;BME280;6464;42.494;27.470;2023-05-24T15:16:05;99655.72;;;23.46;100.00
12801;BME280;6464;42.494;27.470;2023-05-24T15:18:31;99546.25;;;23.37;100.00
12801;BME280;6464;42.494;27.470;2023-05-24T15:21:00;99508.28;;;23.49;100.00
12801;BME280;6464;42.494;27.470;2023-05-24T15:23:27;99495.41;;;23.63;100.00
12801;BME280;6464;42.494;27.470;2023-05-24T15:25:53;99612.38;;;24.18;100.00
12801;BME280;6464;42.494;27.470;2023-05-24T15:28:20;99704.97;;;24.66;100.00
12801;BME280;6464;42.494;27.470;2023-05-24T15:30:48;99880.84;;;25.37;100.00
12801;BME280;6464;42.494;27.470;2023-05-24T15:33:14;100013.25;;;26.13;100.00
12801;BME280;6464;42.494;27.470;2023-05-24T15:35:41;100152.50;;;26.56;100.00
12801;BME280;6464;42.494;27.470;2023-05-24T15:38:10;100276.16;;;26.92;100.00
12801;BME280;6464;42.494;27.470;2023-05-24T15:40:37;100396.09;;;27.32;100.00
12801;BME280;6464;42.494;27.470;2023-05-24T15:43:06;100326.59;;;26.74;100.00
12801;BME280;6464;42.494;27.470;2023-05-24T15:45:33;100373.28;;;26.96;100.00
12801;BME280;6464;42.494;27.470;2023-05-24T15:48:00;100334.97;;;26.71;100.00
12801;BME280;6464;42.494;27.470;2023-05-24T15:50:28;100483.31;;;27.35;100.00
12801;BME280;6464;42.494;27.470;2023-05-24T15:52:56;100449.63;;;26.89;100.00
12801;BME280;6464;42.494;27.470;2023-05-24T15:55:24;100465.09;;;27.18;100.00
12801;BME280;6464;42.494;27.470;2023-05-24T15:57:51;100425.25;;;26.70;100.00
12801;BME280;6464;42.494;27.470;2023-05-24T16:00:18;100322.78;;;26.27;100.00
12801;BME280;6464;42.494;27.470;2023-05-24T16:02:45;100306.47;;;26.48;100.00
12801;BME280;6464;42.494;27.470;2023-05-24T16:05:12;100207.50;;;25.87;100.00
12801;BME280;6464;42.494;27.470;2023-05-24T16:07:39;100166.25;;;25.75;100.00
12801;BME280;6464;42.494;27.470;2023-05-24T16:10:06;100161.13;;;25.82;100.00
12801;BME280;6464;42.494;27.470;2023-05-24T16:12:35;100102.78;;;25.60;100.00
12801;BME280;6464;42.494;27.470;2023-05-24T16:15:02;100049.38;;;25.54;100.00
12801;BME280;6464;42.494;27.470;2023-05-24T16:17:28;100011.84;;;25.51;100.00
12801;BME280;6464;42.494;27.470;2023-05-24T16:19:55;99940.53;;;24.74;100.00
12801;BME280;6464;42.494;27.470;2023-05-24T16:22:23;99802.03;;;24.66;100.00
12801;BME280;6464;42.494;27.470;2023-05-24T16:24:50;99788.00;;;24.52;100.00
12801;BME280;6464;42.494;27.470;2023-05-24T16:27:18;99691.44;;;23.98;100.00
12801;BME280;6464;42.494;27.470;2023-05-24T16:29:46;99612.28;;;23.60;100.00
12801;BME280;6464;42.494;27.470;2023-05-24T16:32:13;99499.09;;;23.42;100.00
12801;BME280;6464;42.494;27.470;2023-05-24T16:34:40;99467.50;;;23.34;100.00
12801;BME280;6464;42.494;27.470;2023-05-24T16:37:07;99452.50;;;23.22;100.00
12801;BME280;6464;42.494;27.470;2023-05-24T16:39:34;99447.25;;;23.30;100.00
12801;BME280;6464;42.494;27.470;2023-05-24T16:42:02;99444.28;;;23.33;100.00
12801;BME280;6464;42.494;27.470;2023-05-24T16:44:31;99414.84;;;22.72;100.00
12801;BME280;6464;42.494;27.470;2023-05-24T16:47:00;99321.59;;;22.34;100.00
12801;BME280;6464;42.494;27.470;2023-05-24T16:49:27;99327.66;;;21.75;100.00
12801;BME280;6464;42.494;27.470;2023-05-24T16:51:54;99338.34;;;21.65;100.00
12801;BME280;6464;42.494;27.470;2023-05-24T16:54:21;99374.56;;;21.18;100.00
12801;BME280;6464;42.494;27.470;2023-05-24T16:56:48;99424.72;;;20.84;100.00
12801;BME280;6464;42.494;27.470;2023-05-24T16:59:18;99429.75;;;20.54;100.00
12801;BME280;6464;42.494;27.470;2023-05-24T17:01:45;99405.03;;;20.28;100.00
12801;BME280;6464;42.494;27.470;2023-05-24T17:04:14;99421.56;;;20.11;100.00
12801;BME280;6464;42.494;27.470;2023-05-24T17:06:42;99433.00;;;20.02;100.00
12801;BME280;6464;42.494;27.470;2023-05-24T17:09:09;99423.25;;;19.90;100.00
12801;BME280;6464;42.494;27.470;2023-05-24T17:11:36;99424.34;;;19.87;100.00
12801;BME280;6464;42.494;27.470;2023-05-24T17:14:03;99402.16;;;19.39;100.00
12801;BME280;6464;42.494;27.470;2023-05-24T17:16:30;99345.69;;;19.08;100.00
12801;BME280;6464;42.494;27.470;2023-05-24T17:18:57;99340.19;;;19.34;100.00
12801;BME280;6464;42.494;27.470;2023-05-24T17:21:25;99299.44;;;19.19;100.00
12801;BME280;6464;42.494;27.470;2023-05-24T17:23:54;99237.59;;;19.01;100.00
12801;BME280;6464;42.494;27.470;2023-05-24T17:26:22;99156.78;;;18.75;100.00
12801;BME280;6464;42.494;27.470;2023-05-24T17:28:49;99151.13;;;18.91;100.00
12801;BME280;6464;42.494;27.470;2023-05-24T17:31:16;99092.25;;;18.81;100.00
12801;BME280;6464;42.494;27.470;2023-05-24T17:33:43;99069.06;;;18.82;100.00
12801;BME280;6464;42.494;27.470;2023-05-24T17:36:10;99054.47;;;18.74;100.00
12801;BME280;6464;42.494;27.470;2023-05-24T17:38:39;99033.69;;;18.67;100.00
12801;BME280;6464;42.494;27.470;2023-05-24T17:41:06;98990.69;;;18.36;100.00
12801;BME280;6464;42.494;27.470;2023-05-24T17:43:36;98986.94;;;18.50;100.00
12801;BME280;6464;42.494;27.470;2023-05-24T17:46:04;98963.44;;;18.44;100.00
12801;BME280;6464;42.494;27.470;2023-05-24T17:48:32;98929.94;;;18.40;100.00